createdAt,value
2022-08-28T00:00:46.533Z,6.80
2022-08-28T00:03:17.491Z,6.10
2022-08-28T00:05:46.814Z,6.90
2022-08-28T00:08:16.757Z,6.20
2022-08-28T00:10:45.961Z,6.63
2022-08-28T00:13:18.921Z,6.27
2022-08-28T00:15:48.816Z,5.80
2022-08-28T00:18:19.446Z,6.90
2022-08-28T00:20:49.267Z,6.50
2022-08-28T00:23:18.079Z,6.60
2022-08-28T00:25:46.880Z,6.00
2022-08-28T00:28:23.451Z,7.53
2022-08-28T00:30:54.667Z,6.70
2022-08-28T00:33:27.161Z,6.30
2022-08-28T00:35:56.510Z,6.87
2022-08-28T00:38:26.225Z,6.40
2022-08-28T00:40:56.353Z,6.13
2022-08-28T00:43:28.233Z,6.43
2022-08-28T00:45:56.915Z,6.53
2022-08-28T00:48:27.288Z,6.90
2022-08-28T00:51:14.307Z,6.63
2022-08-28T00:53:43.126Z,5.67
2022-08-28T00:56:13.544Z,7.10
2022-08-28T00:58:43.342Z,6.27
2022-08-28T01:01:12.040Z,6.10
2022-08-28T01:03:44.645Z,6.40
2022-08-28T01:06:15.205Z,5.80
2022-08-28T01:08:45.697Z,6.30
2022-08-28T01:11:20.234Z,5.80
2022-08-28T01:13:49.699Z,5.93
2022-08-28T01:16:19.240Z,6.20
2022-08-28T01:18:50.535Z,5.97
2022-08-28T01:21:23.837Z,6.77
2022-08-28T01:23:56.189Z,5.83
2022-08-28T01:26:24.930Z,5.90
2022-08-28T01:28:53.700Z,5.47
2022-08-28T01:31:22.683Z,6.17
2022-08-28T01:33:51.511Z,6.70
2022-08-28T01:36:20.442Z,5.60
2022-08-28T01:38:50.661Z,5.63
2022-08-28T01:41:21.819Z,6.23
2022-08-28T01:43:50.586Z,5.90
2022-08-28T01:46:19.301Z,6.10
2022-08-28T01:48:48.749Z,5.60
2022-08-28T01:51:21.497Z,5.70
2022-08-28T01:53:53.656Z,6.53
2022-08-28T01:56:23.682Z,5.80
2022-08-28T01:58:53.009Z,5.97
2022-08-28T02:01:22.536Z,6.50
2022-08-28T02:03:52.920Z,6.10
2022-08-28T02:06:21.800Z,5.40
2022-08-28T02:08:54.738Z,5.90
2022-08-28T02:11:26.050Z,5.57
2022-08-28T02:13:56.360Z,5.83
2022-08-28T02:16:25.448Z,5.90
2022-08-28T02:18:54.103Z,5.63
2022-08-28T02:21:22.891Z,6.07
2022-08-28T02:23:51.438Z,6.10
2022-08-28T02:26:20.943Z,5.90
2022-08-28T02:28:51.353Z,6.03
2022-08-28T02:31:20.305Z,6.40
2022-08-28T02:33:49.092Z,5.90
2022-08-28T02:36:18.080Z,6.13
2022-08-28T02:38:47.403Z,4.60
2022-08-28T02:41:16.086Z,5.63
2022-08-28T02:43:44.917Z,6.00
2022-08-28T02:46:15.001Z,6.27
2022-08-28T02:48:44.827Z,5.70
2022-08-28T02:51:14.997Z,6.17
2022-08-28T02:53:44.019Z,5.80
2022-08-28T02:56:13.127Z,5.70
2022-08-28T02:58:41.708Z,5.47
2022-08-28T03:01:11.466Z,5.40
2022-08-28T03:03:41.823Z,4.80
2022-08-28T03:06:12.464Z,4.37
2022-08-28T03:08:41.652Z,4.00
2022-08-28T03:11:10.616Z,4.00
2022-08-28T03:13:39.284Z,3.60
2022-08-28T03:16:08.496Z,3.07
2022-08-28T03:18:37.137Z,3.50
2022-08-28T03:21:07.298Z,3.33
2022-08-28T03:23:36.473Z,3.13
2022-08-28T03:26:06.106Z,3.50
2022-08-28T03:28:36.083Z,3.33
2022-08-28T03:31:05.944Z,3.50
2022-08-28T03:33:34.805Z,3.10
2022-08-28T03:36:04.791Z,3.07
2022-08-28T03:38:35.128Z,3.63
2022-08-28T03:41:04.162Z,3.20
2022-08-28T03:43:34.026Z,3.03
2022-08-28T03:46:03.737Z,4.40
2022-08-28T03:48:34.172Z,4.43
2022-08-28T03:51:02.895Z,5.10
2022-08-28T03:53:33.068Z,4.77
2022-08-28T03:56:03.627Z,5.63
2022-08-28T03:58:32.277Z,4.40
2022-08-28T04:01:01.126Z,4.00
2022-08-28T04:03:29.799Z,3.63
2022-08-28T04:05:58.427Z,2.83
2022-08-28T04:08:27.318Z,3.37
2022-08-28T04:10:56.011Z,3.47
2022-08-28T04:13:26.357Z,3.37
2022-08-28T04:16:00.104Z,3.87
2022-08-28T04:18:29.430Z,3.57
2022-08-28T04:21:02.473Z,3.50
2022-08-28T04:23:31.169Z,3.30
2022-08-28T04:26:00.307Z,2.37
2022-08-28T04:28:32.349Z,3.17
2022-08-28T04:31:01.169Z,3.13
2022-08-28T04:33:30.329Z,3.77
2022-08-28T04:36:04.934Z,2.90
2022-08-28T04:38:33.576Z,2.23
2022-08-28T04:41:04.707Z,2.60
2022-08-28T04:43:34.973Z,2.63
2022-08-28T04:46:07.099Z,2.20
2022-08-28T04:48:35.936Z,2.10
2022-08-28T04:51:06.360Z,1.90
2022-08-28T04:53:34.895Z,2.73
2022-08-28T04:56:04.274Z,2.23
2022-08-28T04:58:34.131Z,2.30
2022-08-28T05:01:09.018Z,2.27
2022-08-28T05:03:37.605Z,2.30
2022-08-28T05:06:06.624Z,1.70
2022-08-28T05:08:35.248Z,2.10
2022-08-28T05:11:11.587Z,1.90
2022-08-28T05:13:40.274Z,1.87
2022-08-28T05:16:10.439Z,2.17
2022-08-28T05:18:39.883Z,2.07
2022-08-28T05:21:14.549Z,1.97
2022-08-28T05:23:43.453Z,2.23
2022-08-28T05:26:12.769Z,1.77
2022-08-28T05:28:41.625Z,1.80
2022-08-28T05:31:12.300Z,1.80
2022-08-28T05:33:40.989Z,1.67
2022-08-28T05:36:10.354Z,1.93
2022-08-28T05:38:39.380Z,1.90
2022-08-28T05:41:08.301Z,2.90
2022-08-28T05:43:37.420Z,2.20
2022-08-28T05:46:07.509Z,2.40
2022-08-28T05:48:39.605Z,1.90
2022-08-28T05:51:09.595Z,2.60
2022-08-28T05:53:41.101Z,2.40
2022-08-28T05:56:10.021Z,2.50
2022-08-28T05:58:40.420Z,2.80
2022-08-28T06:01:10.468Z,2.40
2022-08-28T06:03:41.243Z,3.20
2022-08-28T06:06:10.574Z,2.50
2022-08-28T06:08:39.254Z,2.43
2022-08-28T06:11:27.221Z,2.77
2022-08-28T06:14:00.380Z,2.40
2022-08-28T06:16:30.964Z,2.10
2022-08-28T06:19:01.716Z,2.20
2022-08-28T06:21:30.339Z,2.60
2022-08-28T06:23:59.137Z,3.20
2022-08-28T06:26:27.834Z,2.40
2022-08-28T06:28:56.672Z,2.50
2022-08-28T06:31:28.800Z,3.00
2022-08-28T06:34:03.023Z,2.60
2022-08-28T06:36:33.657Z,2.30
2022-08-28T06:39:02.933Z,3.30
2022-08-28T06:41:32.171Z,2.03
2022-08-28T06:44:01.090Z,2.67
2022-08-28T06:46:30.494Z,3.10
2022-08-28T06:48:59.403Z,2.30
2022-08-28T06:51:29.761Z,1.77
2022-08-28T06:53:59.080Z,2.53
2022-08-28T06:56:27.702Z,2.30
2022-08-28T06:58:57.068Z,2.90
2022-08-28T07:01:29.372Z,2.30
2022-08-28T07:04:00.180Z,2.60
2022-08-28T07:06:32.304Z,2.53
2022-08-28T07:09:01.038Z,3.57
2022-08-28T07:11:31.359Z,3.00
2022-08-28T07:14:00.591Z,2.83
2022-08-28T07:16:30.403Z,3.17
2022-08-28T07:18:59.824Z,2.73
2022-08-28T07:21:31.149Z,3.40
2022-08-28T07:23:59.878Z,2.57
2022-08-28T07:26:28.475Z,3.30
2022-08-28T07:29:09.652Z,3.07
2022-08-28T07:31:40.682Z,3.13
2022-08-28T07:34:09.825Z,2.90
2022-08-28T07:36:40.624Z,2.93
2022-08-28T07:39:10.077Z,2.87
2022-08-28T07:41:42.291Z,2.83
2022-08-28T07:44:30.069Z,3.10
2022-08-28T07:47:00.208Z,2.87
2022-08-28T07:49:29.197Z,3.00
2022-08-28T07:51:59.348Z,2.30
2022-08-28T07:54:28.189Z,2.90
2022-08-28T07:56:57.033Z,2.90
2022-08-28T07:59:25.683Z,2.93
2022-08-28T08:01:54.805Z,2.77
2022-08-28T08:04:24.397Z,4.20
2022-08-28T08:06:57.860Z,2.80
2022-08-28T08:09:28.747Z,2.83
2022-08-28T08:11:57.863Z,3.00
2022-08-28T08:14:26.977Z,2.30
2022-08-28T08:16:55.797Z,2.63
2022-08-28T08:19:24.412Z,3.00
2022-08-28T08:21:55.264Z,3.00
2022-08-28T08:24:26.373Z,2.60
2022-08-28T08:27:00.277Z,2.67
2022-08-28T08:29:31.266Z,3.03
2022-08-28T08:32:04.972Z,2.73
2022-08-28T08:34:34.324Z,3.30
2022-08-28T08:37:03.074Z,3.00
2022-08-28T08:39:32.378Z,3.07
2022-08-28T08:42:04.433Z,2.80
2022-08-28T08:44:35.342Z,3.30
2022-08-28T08:47:14.077Z,2.60
2022-08-28T08:49:45.436Z,3.28
2022-08-28T08:52:21.758Z,3.00
2022-08-28T08:54:59.252Z,3.00
2022-08-28T08:57:29.841Z,2.90
2022-08-28T08:59:58.637Z,3.08
2022-08-28T09:02:31.324Z,3.15
2022-08-28T09:05:03.757Z,3.07
2022-08-28T09:07:37.895Z,3.00
2022-08-28T09:10:07.338Z,4.00
2022-08-28T09:12:52.829Z,3.50
2022-08-28T09:15:25.485Z,3.47
2022-08-28T09:17:55.865Z,3.00
2022-08-28T09:20:32.311Z,3.42
2022-08-28T09:23:12.424Z,3.10
2022-08-28T09:25:50.898Z,3.00
2022-08-28T09:28:24.177Z,3.00
2022-08-28T09:30:58.543Z,3.17
2022-08-28T09:33:45.777Z,3.75
2022-08-28T09:36:31.598Z,3.60
2022-08-28T09:39:11.489Z,3.50
2022-08-28T09:42:00.204Z,3.60
2022-08-28T09:44:30.632Z,3.50
2022-08-28T09:46:59.411Z,3.50
2022-08-28T09:49:29.894Z,3.40
2022-08-28T09:52:01.645Z,2.97
2022-08-28T09:54:33.846Z,3.28
2022-08-28T09:57:05.974Z,2.90
2022-08-28T09:59:36.505Z,2.70
2022-08-28T10:02:13.182Z,2.78
2022-08-28T10:04:47.681Z,3.60
2022-08-28T10:07:20.791Z,2.72
2022-08-28T10:09:55.334Z,2.42
2022-08-28T10:12:32.683Z,2.40
2022-08-28T10:15:05.938Z,2.80
2022-08-28T10:17:40.575Z,2.85
2022-08-28T10:20:12.393Z,2.45
2022-08-28T10:22:44.416Z,2.70
2022-08-28T10:25:20.428Z,2.90
2022-08-28T10:31:36.269Z,2.00
2022-08-28T10:34:11.254Z,2.47
2022-08-28T10:36:40.466Z,3.37
2022-08-28T10:39:16.080Z,2.90
2022-08-28T10:41:47.576Z,2.50
2022-08-28T10:44:19.640Z,2.40
2022-08-28T10:46:51.219Z,2.70
2022-08-28T10:49:26.481Z,2.30
2022-08-28T10:51:57.614Z,2.20
2022-08-28T10:54:29.730Z,2.42
2022-08-28T10:57:00.509Z,2.30
2022-08-28T10:59:30.911Z,2.40
2022-08-28T11:02:01.378Z,2.38
2022-08-28T11:04:30.795Z,2.20
2022-08-28T11:07:02.330Z,2.10
2022-08-28T11:09:32.669Z,2.15
2022-08-28T11:12:02.933Z,2.05
2022-08-28T11:14:34.221Z,2.00
2022-08-28T11:17:06.862Z,2.13
2022-08-28T11:19:55.386Z,1.90
2022-08-28T11:22:25.686Z,2.55
2022-08-28T11:25:03.249Z,1.83
2022-08-28T11:27:36.304Z,2.10
2022-08-28T11:30:23.138Z,1.98
2022-08-28T11:33:04.260Z,1.75
2022-08-28T11:35:47.312Z,2.23
2022-08-28T11:38:31.418Z,2.40
2022-08-28T11:41:11.435Z,2.00
2022-08-28T11:43:44.752Z,2.40
2022-08-28T11:46:28.247Z,1.90
2022-08-28T11:48:58.913Z,2.47
2022-08-28T11:51:54.809Z,2.00
2022-08-28T11:54:27.204Z,2.40
2022-08-28T11:57:04.404Z,2.10
2022-08-28T11:59:58.770Z,1.90
2022-08-28T12:02:48.873Z,1.80
2022-08-28T12:05:45.969Z,1.90
2022-08-28T12:08:36.090Z,2.00
2022-08-28T12:11:06.072Z,2.05
2022-08-28T12:13:44.503Z,2.00
2022-08-28T12:16:13.359Z,2.17
2022-08-28T12:19:02.232Z,1.90
2022-08-28T12:21:32.513Z,2.10
2022-08-28T12:24:08.965Z,2.30
2022-08-28T12:26:40.502Z,1.92
2022-08-28T12:29:35.434Z,1.92
2022-08-28T12:32:13.013Z,1.88
2022-08-28T12:34:49.759Z,2.10
2022-08-28T12:37:51.648Z,2.03
2022-08-28T12:40:23.976Z,1.90
2022-08-28T12:42:56.051Z,2.00
2022-08-28T12:45:27.652Z,2.00
2022-08-28T12:47:57.990Z,1.95
2022-08-28T12:50:28.301Z,2.30
2022-08-28T12:52:57.956Z,2.20
2022-08-28T12:55:26.669Z,1.67
2022-08-28T12:57:59.511Z,1.50
2022-08-28T13:00:33.331Z,1.70
2022-08-28T13:03:02.624Z,1.75
2022-08-28T13:05:32.887Z,3.53
2022-08-28T13:08:03.905Z,1.95
2022-08-28T13:10:33.861Z,1.80
2022-08-28T13:13:06.274Z,2.00
2022-08-28T13:15:48.723Z,1.88
2022-08-28T13:18:36.783Z,1.60
2022-08-28T13:21:13.315Z,1.58
2022-08-28T13:23:42.291Z,1.80
2022-08-28T13:26:11.784Z,2.00
2022-08-28T13:28:43.775Z,1.40
2022-08-28T13:31:21.387Z,1.70
2022-08-28T13:34:03.655Z,1.77
2022-08-28T13:36:39.418Z,1.80
2022-08-28T13:39:08.278Z,1.73
2022-08-28T13:41:37.597Z,1.50
2022-08-28T13:44:08.579Z,1.70
2022-08-28T13:46:38.659Z,1.70
2022-08-28T13:49:07.294Z,1.50
2022-08-28T13:51:39.460Z,1.47
2022-08-28T13:54:08.437Z,1.60
2022-08-28T13:56:38.043Z,1.35
2022-08-28T13:59:08.162Z,1.63
2022-08-28T14:01:54.502Z,1.30
2022-08-28T14:04:23.405Z,1.70
2022-08-28T14:06:51.962Z,1.63
2022-08-28T14:09:21.591Z,1.57
2022-08-28T14:36:45.610Z,1.27
2022-08-28T14:39:14.849Z,1.92
2022-08-28T14:41:46.222Z,1.67
2022-08-28T14:44:14.962Z,1.90
2022-08-28T14:46:44.370Z,1.70
2022-08-28T14:49:14.399Z,1.77
2022-08-28T14:51:45.429Z,2.00
2022-08-28T14:54:15.826Z,1.25
2022-08-28T14:56:44.774Z,1.58
2022-08-28T14:59:18.495Z,1.80
2022-08-28T15:01:50.361Z,2.00
2022-08-28T15:04:22.672Z,1.90
2022-08-28T15:06:53.423Z,2.03
2022-08-28T15:09:22.073Z,2.30
2022-08-28T15:11:51.138Z,1.90
2022-08-28T15:14:19.761Z,1.75
2022-08-28T15:16:49.241Z,1.75
2022-08-28T15:19:18.620Z,1.80
2022-08-28T15:21:48.157Z,1.50
2022-08-28T15:24:19.145Z,1.63
2022-08-28T15:26:47.885Z,1.42
2022-08-28T15:34:15.277Z,1.73
2022-08-28T15:36:44.269Z,1.70
2022-08-28T15:39:45.522Z,1.40
2022-08-28T15:42:16.488Z,1.57
2022-08-28T15:44:45.389Z,1.42
2022-08-28T15:47:14.849Z,1.60
2022-08-28T15:49:50.036Z,1.70
2022-08-28T15:52:20.931Z,1.63
2022-08-28T15:54:50.418Z,1.73
2022-08-28T15:57:20.470Z,1.50
2022-08-28T15:59:50.817Z,1.60
2022-08-28T16:02:20.464Z,1.70
2022-08-28T16:04:49.293Z,1.58
2022-08-28T16:07:18.202Z,1.40
2022-08-28T16:09:46.774Z,1.30
2022-08-28T16:12:16.444Z,1.60
2022-08-28T16:14:46.682Z,1.50
2022-08-28T16:17:15.323Z,1.67
2022-08-28T16:19:44.939Z,1.50
2022-08-28T16:22:15.838Z,1.48
2022-08-28T16:24:44.777Z,1.30
2022-08-28T16:27:15.668Z,1.50
2022-08-28T16:29:46.456Z,1.60
2022-08-28T16:32:18.702Z,1.63
2022-08-28T16:34:47.476Z,1.73
2022-08-28T16:37:19.458Z,1.90
2022-08-28T16:39:49.842Z,1.40
2022-08-28T16:42:18.652Z,1.80
2022-08-28T16:44:48.964Z,1.40
2022-08-28T16:47:17.814Z,1.52
2022-08-28T16:49:46.720Z,1.30
2022-08-28T16:52:15.461Z,1.47
2022-08-28T16:54:47.465Z,1.27
2022-08-28T16:57:17.302Z,1.60
2022-08-28T16:59:46.202Z,2.00
2022-08-28T17:02:17.086Z,1.67
2022-08-28T17:04:46.011Z,1.30
2022-08-28T17:07:14.770Z,1.63
2022-08-28T17:09:43.379Z,1.60
2022-08-28T17:12:12.204Z,1.33
2022-08-28T17:14:41.932Z,1.60
2022-08-28T17:17:10.599Z,1.30
2022-08-28T17:19:40.672Z,1.70
2022-08-28T17:22:27.579Z,1.27
2022-08-28T17:24:58.783Z,1.67
2022-08-28T17:27:27.520Z,1.90
2022-08-28T17:29:56.820Z,1.35
2022-08-28T17:32:25.713Z,1.60
2022-08-28T17:34:55.673Z,1.20
2022-08-28T17:37:24.875Z,1.58
2022-08-28T17:39:53.972Z,1.45
2022-08-28T17:42:22.702Z,1.40
2022-08-28T17:44:51.619Z,1.40
2022-08-28T17:47:21.743Z,1.40
2022-08-28T17:50:04.631Z,1.30
2022-08-28T17:52:34.102Z,1.58
2022-08-28T17:55:02.730Z,1.20
2022-08-28T17:57:31.521Z,1.50
2022-08-28T18:00:00.666Z,1.50
2022-08-28T18:02:30.183Z,1.60
2022-08-28T18:04:58.926Z,1.50
2022-08-28T18:07:31.901Z,1.40
2022-08-28T18:10:00.483Z,1.50
2022-08-28T18:12:29.262Z,1.50
2022-08-28T18:14:58.272Z,1.40
2022-08-28T18:17:28.191Z,1.67
2022-08-28T18:19:57.799Z,1.40
2022-08-28T18:22:29.601Z,1.40
2022-08-28T18:24:59.929Z,1.55
2022-08-28T18:27:31.403Z,1.75
2022-08-28T18:30:00.330Z,1.20
2022-08-28T18:32:29.175Z,1.50
2022-08-28T18:34:57.985Z,1.38
2022-08-28T18:37:26.924Z,1.58
2022-08-28T18:39:55.640Z,1.50
2022-08-28T18:42:26.290Z,1.40
2022-08-28T18:44:55.293Z,1.60
2022-08-28T18:47:24.085Z,1.50
2022-08-28T18:49:52.854Z,1.40
2022-08-28T18:52:21.613Z,1.40
2022-08-28T18:54:51.094Z,1.30
2022-08-28T18:57:20.179Z,1.50
2022-08-28T18:59:50.632Z,1.43
2022-08-28T19:02:19.375Z,1.48
2022-08-28T19:04:48.082Z,1.55
2022-08-28T19:07:16.839Z,1.48
2022-08-28T19:09:45.586Z,1.40
2022-08-28T19:12:14.469Z,1.52
2022-08-28T19:14:43.248Z,1.60
2022-08-28T19:17:15.128Z,1.60
2022-08-28T19:19:46.977Z,1.60
2022-08-28T19:22:15.768Z,1.95
2022-08-28T19:24:44.588Z,2.43
2022-08-28T19:27:15.320Z,1.70
2022-08-28T19:29:44.204Z,1.70
2022-08-28T19:32:14.664Z,1.40
2022-08-28T19:34:43.979Z,1.58
2022-08-28T19:37:12.763Z,1.77
2022-08-28T19:39:41.339Z,1.48
2022-08-28T19:42:17.308Z,1.58
2022-08-28T19:44:50.989Z,1.70
2022-08-28T19:47:21.426Z,1.48
2022-08-28T19:49:54.067Z,1.30
2022-08-28T19:52:23.653Z,1.70
2022-08-28T19:54:52.694Z,1.27
2022-08-28T19:57:24.122Z,1.30
2022-08-28T19:59:52.774Z,1.60
2022-08-28T20:02:23.051Z,1.57
2022-08-28T20:04:52.591Z,1.50
2022-08-28T20:07:21.296Z,1.50
2022-08-28T20:09:49.853Z,1.57
2022-08-28T20:12:21.257Z,1.67
2022-08-28T20:14:52.729Z,1.30
2022-08-28T20:17:26.265Z,2.00
2022-08-28T20:20:02.318Z,1.60
2022-08-28T20:22:32.294Z,1.60
2022-08-28T20:25:01.246Z,1.67
2022-08-28T20:27:29.848Z,1.93
2022-08-28T20:29:58.500Z,1.33
2022-08-28T20:32:40.488Z,1.40
2022-08-28T20:35:10.968Z,1.70
2022-08-28T20:37:45.375Z,1.42
2022-08-28T20:40:16.693Z,1.90
2022-08-28T20:42:45.504Z,1.70
2022-08-28T20:45:15.147Z,1.60
2022-08-28T20:47:45.267Z,1.60
2022-08-28T20:50:14.923Z,1.60
2022-08-28T20:52:43.649Z,1.58
2022-08-28T20:55:13.142Z,1.50
2022-08-28T20:57:41.872Z,1.90
2022-08-28T21:00:11.589Z,1.80
2022-08-28T21:02:40.275Z,1.60
2022-08-28T21:05:10.635Z,1.60
2022-08-28T21:07:39.340Z,1.63
2022-08-28T21:10:08.440Z,1.70
2022-08-28T21:12:37.775Z,1.80
2022-08-28T21:15:07.101Z,1.70
2022-08-28T21:17:35.758Z,1.90
2022-08-28T21:20:07.239Z,1.50
2022-08-28T21:22:37.323Z,1.48
2022-08-28T21:25:07.084Z,1.63
2022-08-28T21:27:36.333Z,1.80
2022-08-28T21:30:06.921Z,1.52
2022-08-28T21:32:36.179Z,1.40
2022-08-28T21:35:05.688Z,1.70
2022-08-28T21:37:34.448Z,2.00
2022-08-28T21:40:04.710Z,2.30
2022-08-28T21:42:33.447Z,1.80
2022-08-28T21:45:02.344Z,1.50
2022-08-28T21:47:31.591Z,2.50
2022-08-28T21:50:00.423Z,1.70
2022-08-28T21:55:01.136Z,1.70
2022-08-28T21:57:31.848Z,1.60
2022-08-28T22:00:00.388Z,1.50
2022-08-28T22:02:29.408Z,1.27
2022-08-28T22:04:57.948Z,1.77
2022-08-28T22:07:26.675Z,1.40
2022-08-28T22:09:56.349Z,1.50
2022-08-28T22:12:25.020Z,1.60
2022-08-28T22:14:55.125Z,1.45
2022-08-28T22:17:23.744Z,1.50
2022-08-28T22:19:53.021Z,1.30
2022-08-28T22:22:39.355Z,1.57
2022-08-28T22:25:10.836Z,1.50
2022-08-28T22:27:39.648Z,1.60
2022-08-28T22:30:10.264Z,1.75
2022-08-28T22:32:39.145Z,1.67
2022-08-28T22:35:09.583Z,1.83
2022-08-28T22:37:38.205Z,2.30
2022-08-28T22:40:10.626Z,1.70
2022-08-28T22:42:43.405Z,1.33
2022-08-28T22:45:14.371Z,2.00
2022-08-28T22:47:43.439Z,1.63
2022-08-28T22:50:12.820Z,1.80
2022-08-28T22:52:43.231Z,1.60
2022-08-28T22:55:12.679Z,1.50
2022-08-28T22:57:41.668Z,1.40
2022-08-28T23:00:12.252Z,1.40
2022-08-28T23:02:42.377Z,1.50
2022-08-28T23:05:11.068Z,1.60
2022-08-28T23:07:39.795Z,1.90
2022-08-28T23:10:09.025Z,1.60
2022-08-28T23:12:37.647Z,1.77
2022-08-28T23:15:07.164Z,1.70
2022-08-28T23:17:35.816Z,1.70
2022-08-28T23:20:08.573Z,1.50
2022-08-28T23:22:38.738Z,1.60
2022-08-28T23:25:08.469Z,1.88
2022-08-28T23:27:37.406Z,1.70
2022-08-28T23:30:07.970Z,1.70
2022-08-28T23:32:36.593Z,1.83
2022-08-28T23:35:07.563Z,1.80
2022-08-28T23:37:37.495Z,1.87
2022-08-28T23:40:07.213Z,1.70
2022-08-28T23:42:35.929Z,1.57
2022-08-28T23:45:05.356Z,1.77
2022-08-28T23:47:33.944Z,1.57
2022-08-28T23:50:11.714Z,1.60
2022-08-28T23:52:40.425Z,1.60
2022-08-28T23:55:09.722Z,1.53
2022-08-28T23:57:39.016Z,1.57
